sensor_id;sensor_type;location;lat;lon;timestamp;P1;durP1;ratioP1;P2;durP2;ratioP2
36009;SDS011;22076;52.182;5.404;2022-10-23T00:00:58;24.27;;;14.30;;
36009;SDS011;22076;52.182;5.404;2022-10-23T00:03:25;38.78;;;18.13;;
36009;SDS011;22076;52.182;5.404;2022-10-23T00:05:51;31.33;;;18.83;;
36009;SDS011;22076;52.182;5.404;2022-10-23T00:08:18;31.65;;;16.17;;
36009;SDS011;22076;52.182;5.404;2022-10-23T00:10:45;24.05;;;14.75;;
36009;SDS011;22076;52.182;5.404;2022-10-23T00:13:11;18.05;;;11.77;;
36009;SDS011;22076;52.182;5.404;2022-10-23T00:15:38;22.90;;;13.07;;
36009;SDS011;22076;52.182;5.404;2022-10-23T00:18:06;21.23;;;13.27;;
36009;SDS011;22076;52.182;5.404;2022-10-23T00:20:32;23.05;;;13.68;;
36009;SDS011;22076;52.182;5.404;2022-10-23T00:22:59;23.80;;;14.20;;
36009;SDS011;22076;52.182;5.404;2022-10-23T00:25:25;19.67;;;13.70;;
36009;SDS011;22076;52.182;5.404;2022-10-23T00:27:52;18.65;;;12.25;;
36009;SDS011;22076;52.182;5.404;2022-10-23T00:30:18;24.67;;;15.75;;
36009;SDS011;22076;52.182;5.404;2022-10-23T00:32:45;25.88;;;13.27;;
36009;SDS011;22076;52.182;5.404;2022-10-23T00:35:13;15.40;;;9.23;;
36009;SDS011;22076;52.182;5.404;2022-10-23T00:37:40;26.02;;;13.65;;
36009;SDS011;22076;52.182;5.404;2022-10-23T00:40:07;20.77;;;12.63;;
36009;SDS011;22076;52.182;5.404;2022-10-23T00:42:35;23.40;;;14.57;;
36009;SDS011;22076;52.182;5.404;2022-10-23T00:45:08;17.95;;;12.07;;
36009;SDS011;22076;52.182;5.404;2022-10-23T00:47:37;21.75;;;13.70;;
36009;SDS011;22076;52.182;5.404;2022-10-23T00:50:04;24.10;;;14.15;;
36009;SDS011;22076;52.182;5.404;2022-10-23T00:52:32;16.67;;;10.93;;
36009;SDS011;22076;52.182;5.404;2022-10-23T00:55:00;20.23;;;12.50;;
36009;SDS011;22076;52.182;5.404;2022-10-23T00:57:27;21.60;;;14.40;;
36009;SDS011;22076;52.182;5.404;2022-10-23T00:59:53;21.35;;;11.98;;
36009;SDS011;22076;52.182;5.404;2022-10-23T01:02:20;17.20;;;9.43;;
36009;SDS011;22076;52.182;5.404;2022-10-23T01:04:47;24.40;;;14.32;;
36009;SDS011;22076;52.182;5.404;2022-10-23T01:07:15;21.67;;;13.93;;
36009;SDS011;22076;52.182;5.404;2022-10-23T01:09:50;14.30;;;9.43;;
36009;SDS011;22076;52.182;5.404;2022-10-23T01:12:22;14.63;;;9.05;;
36009;SDS011;22076;52.182;5.404;2022-10-23T01:14:57;21.70;;;12.85;;
36009;SDS011;22076;52.182;5.404;2022-10-23T01:17:29;18.70;;;12.20;;
36009;SDS011;22076;52.182;5.404;2022-10-23T01:20:09;17.67;;;10.98;;
36009;SDS011;22076;52.182;5.404;2022-10-23T01:22:45;23.58;;;14.00;;
36009;SDS011;22076;52.182;5.404;2022-10-23T01:25:22;25.70;;;14.60;;
36009;SDS011;22076;52.182;5.404;2022-10-23T01:27:58;23.60;;;14.38;;
36009;SDS011;22076;52.182;5.404;2022-10-23T01:30:27;24.65;;;14.63;;
36009;SDS011;22076;52.182;5.404;2022-10-23T01:32:55;23.30;;;13.70;;
36009;SDS011;22076;52.182;5.404;2022-10-23T01:35:28;14.70;;;9.20;;
36009;SDS011;22076;52.182;5.404;2022-10-23T01:37:58;22.23;;;12.63;;
36009;SDS011;22076;52.182;5.404;2022-10-23T01:40:29;19.10;;;10.95;;
36009;SDS011;22076;52.182;5.404;2022-10-23T01:43:00;22.90;;;14.02;;
36009;SDS011;22076;52.182;5.404;2022-10-23T01:45:31;19.23;;;11.68;;
36009;SDS011;22076;52.182;5.404;2022-10-23T01:48:00;23.58;;;13.63;;
36009;SDS011;22076;52.182;5.404;2022-10-23T01:50:29;21.95;;;13.60;;
36009;SDS011;22076;52.182;5.404;2022-10-23T01:52:56;18.83;;;10.93;;
36009;SDS011;22076;52.182;5.404;2022-10-23T01:55:23;22.02;;;14.05;;
36009;SDS011;22076;52.182;5.404;2022-10-23T01:57:50;29.88;;;13.30;;
36009;SDS011;22076;52.182;5.404;2022-10-23T02:00:18;12.48;;;8.05;;
36009;SDS011;22076;52.182;5.404;2022-10-23T02:02:46;25.80;;;12.43;;
36009;SDS011;22076;52.182;5.404;2022-10-23T02:05:16;21.92;;;10.70;;
36009;SDS011;22076;52.182;5.404;2022-10-23T02:07:45;23.20;;;12.68;;
36009;SDS011;22076;52.182;5.404;2022-10-23T02:10:12;21.67;;;13.63;;
36009;SDS011;22076;52.182;5.404;2022-10-23T02:12:43;20.15;;;11.38;;
36009;SDS011;22076;52.182;5.404;2022-10-23T02:15:13;18.02;;;9.60;;
36009;SDS011;22076;52.182;5.404;2022-10-23T02:17:48;17.80;;;10.93;;
36009;SDS011;22076;52.182;5.404;2022-10-23T02:20:31;16.58;;;9.65;;
36009;SDS011;22076;52.182;5.404;2022-10-23T02:23:03;21.85;;;13.18;;
36009;SDS011;22076;52.182;5.404;2022-10-23T02:25:39;24.83;;;12.95;;
36009;SDS011;22076;52.182;5.404;2022-10-23T02:28:12;23.75;;;12.27;;
36009;SDS011;22076;52.182;5.404;2022-10-23T02:30:42;24.38;;;11.45;;
36009;SDS011;22076;52.182;5.404;2022-10-23T02:33:11;23.17;;;10.50;;
36009;SDS011;22076;52.182;5.404;2022-10-23T02:35:38;17.75;;;10.40;;
36009;SDS011;22076;52.182;5.404;2022-10-23T02:41:01;26.70;;;12.63;;
36009;SDS011;22076;52.182;5.404;2022-10-23T02:43:35;11.82;;;8.07;;
36009;SDS011;22076;52.182;5.404;2022-10-23T02:46:06;18.73;;;8.43;;
36009;SDS011;22076;52.182;5.404;2022-10-23T02:48:38;23.63;;;11.45;;
36009;SDS011;22076;52.182;5.404;2022-10-23T02:51:08;14.85;;;6.68;;
36009;SDS011;22076;52.182;5.404;2022-10-23T02:53:40;16.65;;;9.27;;
36009;SDS011;22076;52.182;5.404;2022-10-23T02:56:11;20.55;;;10.40;;
36009;SDS011;22076;52.182;5.404;2022-10-23T02:58:43;17.83;;;9.37;;
36009;SDS011;22076;52.182;5.404;2022-10-23T03:01:13;19.30;;;11.18;;
36009;SDS011;22076;52.182;5.404;2022-10-23T03:03:43;15.93;;;8.32;;
36009;SDS011;22076;52.182;5.404;2022-10-23T03:06:11;11.98;;;6.57;;
36009;SDS011;22076;52.182;5.404;2022-10-23T03:08:42;17.13;;;9.45;;
36009;SDS011;22076;52.182;5.404;2022-10-23T03:11:09;23.90;;;10.32;;
36009;SDS011;22076;52.182;5.404;2022-10-23T03:13:36;17.25;;;9.00;;
36009;SDS011;22076;52.182;5.404;2022-10-23T03:16:02;20.42;;;11.35;;
36009;SDS011;22076;52.182;5.404;2022-10-23T03:18:31;22.60;;;10.30;;
36009;SDS011;22076;52.182;5.404;2022-10-23T03:20:57;19.27;;;10.18;;
36009;SDS011;22076;52.182;5.404;2022-10-23T03:23:24;12.45;;;7.13;;
36009;SDS011;22076;52.182;5.404;2022-10-23T03:25:51;19.45;;;9.25;;
36009;SDS011;22076;52.182;5.404;2022-10-23T03:28:18;13.95;;;6.38;;
36009;SDS011;22076;52.182;5.404;2022-10-23T03:30:45;22.10;;;9.93;;
36009;SDS011;22076;52.182;5.404;2022-10-23T03:33:12;11.98;;;7.25;;
36009;SDS011;22076;52.182;5.404;2022-10-23T03:35:40;14.82;;;8.45;;
36009;SDS011;22076;52.182;5.404;2022-10-23T03:38:07;17.30;;;9.88;;
36009;SDS011;22076;52.182;5.404;2022-10-23T03:40:33;18.90;;;9.75;;
36009;SDS011;22076;52.182;5.404;2022-10-23T03:43:00;13.00;;;7.15;;
36009;SDS011;22076;52.182;5.404;2022-10-23T03:45:27;13.35;;;7.05;;
36009;SDS011;22076;52.182;5.404;2022-10-23T03:47:54;10.75;;;6.95;;
36009;SDS011;22076;52.182;5.404;2022-10-23T03:50:21;15.68;;;10.18;;
36009;SDS011;22076;52.182;5.404;2022-10-23T03:52:49;20.17;;;10.65;;
36009;SDS011;22076;52.182;5.404;2022-10-23T03:55:16;16.60;;;8.35;;
36009;SDS011;22076;52.182;5.404;2022-10-23T03:57:42;19.15;;;9.48;;
36009;SDS011;22076;52.182;5.404;2022-10-23T04:00:09;11.52;;;6.85;;
36009;SDS011;22076;52.182;5.404;2022-10-23T04:02:38;11.68;;;8.02;;
36009;SDS011;22076;52.182;5.404;2022-10-23T04:05:05;14.95;;;9.27;;
36009;SDS011;22076;52.182;5.404;2022-10-23T04:07:32;17.45;;;7.60;;
36009;SDS011;22076;52.182;5.404;2022-10-23T04:10:00;12.88;;;6.78;;
36009;SDS011;22076;52.182;5.404;2022-10-23T04:12:26;12.95;;;8.10;;
36009;SDS011;22076;52.182;5.404;2022-10-23T04:14:53;14.82;;;7.60;;
36009;SDS011;22076;52.182;5.404;2022-10-23T04:17:19;21.75;;;10.05;;
36009;SDS011;22076;52.182;5.404;2022-10-23T04:19:46;14.23;;;8.05;;
36009;SDS011;22076;52.182;5.404;2022-10-23T04:22:12;18.60;;;9.32;;
36009;SDS011;22076;52.182;5.404;2022-10-23T04:24:39;19.80;;;8.25;;
36009;SDS011;22076;52.182;5.404;2022-10-23T04:27:12;19.35;;;9.25;;
36009;SDS011;22076;52.182;5.404;2022-10-23T04:29:39;18.45;;;9.48;;
36009;SDS011;22076;52.182;5.404;2022-10-23T04:32:06;24.67;;;9.98;;
36009;SDS011;22076;52.182;5.404;2022-10-23T04:34:32;14.10;;;7.57;;
36009;SDS011;22076;52.182;5.404;2022-10-23T04:36:59;16.80;;;8.90;;
36009;SDS011;22076;52.182;5.404;2022-10-23T04:39:26;22.52;;;8.82;;
36009;SDS011;22076;52.182;5.404;2022-10-23T04:41:53;17.85;;;10.32;;
36009;SDS011;22076;52.182;5.404;2022-10-23T04:44:21;12.55;;;7.78;;
36009;SDS011;22076;52.182;5.404;2022-10-23T04:46:47;18.52;;;9.50;;
36009;SDS011;22076;52.182;5.404;2022-10-23T04:49:14;13.00;;;7.53;;
36009;SDS011;22076;52.182;5.404;2022-10-23T04:51:41;18.60;;;9.93;;
36009;SDS011;22076;52.182;5.404;2022-10-23T04:54:07;19.92;;;9.02;;
36009;SDS011;22076;52.182;5.404;2022-10-23T04:56:37;21.83;;;9.63;;
36009;SDS011;22076;52.182;5.404;2022-10-23T04:59:03;16.08;;;8.18;;
36009;SDS011;22076;52.182;5.404;2022-10-23T05:01:32;17.98;;;8.40;;
36009;SDS011;22076;52.182;5.404;2022-10-23T05:03:58;14.95;;;8.23;;
36009;SDS011;22076;52.182;5.404;2022-10-23T05:06:25;13.48;;;6.93;;
36009;SDS011;22076;52.182;5.404;2022-10-23T05:08:52;18.13;;;9.60;;
36009;SDS011;22076;52.182;5.404;2022-10-23T05:11:18;11.73;;;6.90;;
36009;SDS011;22076;52.182;5.404;2022-10-23T05:13:45;18.80;;;8.88;;
36009;SDS011;22076;52.182;5.404;2022-10-23T05:16:12;19.73;;;8.93;;
36009;SDS011;22076;52.182;5.404;2022-10-23T05:18:50;21.05;;;10.35;;
36009;SDS011;22076;52.182;5.404;2022-10-23T05:21:18;17.20;;;9.98;;
36009;SDS011;22076;52.182;5.404;2022-10-23T05:23:48;14.18;;;6.75;;
36009;SDS011;22076;52.182;5.404;2022-10-23T05:26:15;10.15;;;6.03;;
36009;SDS011;22076;52.182;5.404;2022-10-23T05:28:42;14.70;;;8.07;;
36009;SDS011;22076;52.182;5.404;2022-10-23T05:31:09;17.15;;;8.65;;
36009;SDS011;22076;52.182;5.404;2022-10-23T05:33:36;14.93;;;8.57;;
36009;SDS011;22076;52.182;5.404;2022-10-23T05:36:04;16.02;;;8.63;;
36009;SDS011;22076;52.182;5.404;2022-10-23T05:38:31;26.40;;;9.85;;
36009;SDS011;22076;52.182;5.404;2022-10-23T05:40:59;21.38;;;10.35;;
36009;SDS011;22076;52.182;5.404;2022-10-23T05:43:25;11.45;;;7.18;;
36009;SDS011;22076;52.182;5.404;2022-10-23T05:45:55;20.67;;;10.00;;
36009;SDS011;22076;52.182;5.404;2022-10-23T05:48:21;21.83;;;9.90;;
36009;SDS011;22076;52.182;5.404;2022-10-23T05:50:48;15.82;;;6.47;;
36009;SDS011;22076;52.182;5.404;2022-10-23T05:53:16;17.88;;;9.63;;
36009;SDS011;22076;52.182;5.404;2022-10-23T05:55:42;19.25;;;9.13;;
36009;SDS011;22076;52.182;5.404;2022-10-23T05:58:09;9.27;;;6.60;;
36009;SDS011;22076;52.182;5.404;2022-10-23T06:00:35;21.35;;;9.43;;
36009;SDS011;22076;52.182;5.404;2022-10-23T06:03:02;21.23;;;10.23;;
36009;SDS011;22076;52.182;5.404;2022-10-23T06:05:29;15.65;;;9.18;;
36009;SDS011;22076;52.182;5.404;2022-10-23T06:07:56;23.00;;;10.30;;
36009;SDS011;22076;52.182;5.404;2022-10-23T06:10:24;21.40;;;10.88;;
36009;SDS011;22076;52.182;5.404;2022-10-23T06:12:50;26.63;;;11.63;;
36009;SDS011;22076;52.182;5.404;2022-10-23T06:15:17;15.70;;;9.35;;
36009;SDS011;22076;52.182;5.404;2022-10-23T06:17:44;21.88;;;11.13;;
36009;SDS011;22076;52.182;5.404;2022-10-23T06:20:10;13.90;;;8.48;;
36009;SDS011;22076;52.182;5.404;2022-10-23T06:22:37;19.58;;;9.02;;
36009;SDS011;22076;52.182;5.404;2022-10-23T06:25:04;20.98;;;11.15;;
36009;SDS011;22076;52.182;5.404;2022-10-23T06:27:33;17.10;;;8.23;;
36009;SDS011;22076;52.182;5.404;2022-10-23T06:30:00;24.92;;;9.85;;
36009;SDS011;22076;52.182;5.404;2022-10-23T06:32:29;19.02;;;10.60;;
36009;SDS011;22076;52.182;5.404;2022-10-23T06:34:56;23.45;;;9.75;;
36009;SDS011;22076;52.182;5.404;2022-10-23T06:37:26;23.45;;;10.00;;
36009;SDS011;22076;52.182;5.404;2022-10-23T06:39:53;24.83;;;11.52;;
36009;SDS011;22076;52.182;5.404;2022-10-23T06:42:19;14.38;;;8.02;;
36009;SDS011;22076;52.182;5.404;2022-10-23T06:44:48;23.58;;;11.20;;
36009;SDS011;22076;52.182;5.404;2022-10-23T06:47:14;21.88;;;11.23;;
36009;SDS011;22076;52.182;5.404;2022-10-23T06:49:41;18.90;;;9.32;;
36009;SDS011;22076;52.182;5.404;2022-10-23T06:52:08;18.77;;;8.70;;
36009;SDS011;22076;52.182;5.404;2022-10-23T06:54:34;22.42;;;8.43;;
36009;SDS011;22076;52.182;5.404;2022-10-23T06:57:01;16.48;;;7.60;;
36009;SDS011;22076;52.182;5.404;2022-10-23T06:59:28;21.75;;;9.18;;
36009;SDS011;22076;52.182;5.404;2022-10-23T07:01:56;22.70;;;11.05;;
36009;SDS011;22076;52.182;5.404;2022-10-23T07:04:23;25.30;;;11.05;;
36009;SDS011;22076;52.182;5.404;2022-10-23T07:06:50;14.45;;;8.18;;
36009;SDS011;22076;52.182;5.404;2022-10-23T07:09:16;22.88;;;10.48;;
36009;SDS011;22076;52.182;5.404;2022-10-23T07:11:43;19.02;;;9.27;;
36009;SDS011;22076;52.182;5.404;2022-10-23T07:14:10;27.98;;;11.68;;
36009;SDS011;22076;52.182;5.404;2022-10-23T07:16:36;29.40;;;11.32;;
36009;SDS011;22076;52.182;5.404;2022-10-23T07:19:04;18.52;;;8.73;;
36009;SDS011;22076;52.182;5.404;2022-10-23T07:21:31;15.95;;;9.55;;
36009;SDS011;22076;52.182;5.404;2022-10-23T07:23:59;18.05;;;8.65;;
36009;SDS011;22076;52.182;5.404;2022-10-23T07:26:27;14.90;;;8.57;;
36009;SDS011;22076;52.182;5.404;2022-10-23T07:28:53;24.95;;;12.18;;
36009;SDS011;22076;52.182;5.404;2022-10-23T07:31:20;20.73;;;11.15;;
36009;SDS011;22076;52.182;5.404;2022-10-23T07:33:47;26.90;;;11.38;;
36009;SDS011;22076;52.182;5.404;2022-10-23T07:36:15;19.02;;;10.80;;
36009;SDS011;22076;52.182;5.404;2022-10-23T07:38:42;13.48;;;8.57;;
36009;SDS011;22076;52.182;5.404;2022-10-23T07:41:09;27.08;;;11.20;;
36009;SDS011;22076;52.182;5.404;2022-10-23T07:43:36;22.88;;;10.40;;
36009;SDS011;22076;52.182;5.404;2022-10-23T07:46:03;25.17;;;12.05;;
36009;SDS011;22076;52.182;5.404;2022-10-23T07:48:33;20.65;;;9.25;;
36009;SDS011;22076;52.182;5.404;2022-10-23T07:51:00;29.02;;;11.70;;
36009;SDS011;22076;52.182;5.404;2022-10-23T07:53:33;21.13;;;9.47;;
36009;SDS011;22076;52.182;5.404;2022-10-23T07:56:01;17.73;;;8.98;;
36009;SDS011;22076;52.182;5.404;2022-10-23T07:58:29;27.13;;;11.20;;
36009;SDS011;22076;52.182;5.404;2022-10-23T08:00:57;13.85;;;6.70;;
36009;SDS011;22076;52.182;5.404;2022-10-23T08:03:25;23.80;;;12.05;;
36009;SDS011;22076;52.182;5.404;2022-10-23T08:05:52;17.10;;;7.97;;
36009;SDS011;22076;52.182;5.404;2022-10-23T08:08:19;16.77;;;8.32;;
36009;SDS011;22076;52.182;5.404;2022-10-23T08:10:47;14.00;;;7.80;;
36009;SDS011;22076;52.182;5.404;2022-10-23T08:13:16;26.02;;;11.88;;
36009;SDS011;22076;52.182;5.404;2022-10-23T08:15:44;23.10;;;11.45;;
36009;SDS011;22076;52.182;5.404;2022-10-23T08:18:12;21.80;;;12.15;;
36009;SDS011;22076;52.182;5.404;2022-10-23T08:20:39;28.23;;;11.60;;
36009;SDS011;22076;52.182;5.404;2022-10-23T08:23:06;20.63;;;11.48;;
36009;SDS011;22076;52.182;5.404;2022-10-23T08:25:33;28.25;;;13.02;;
36009;SDS011;22076;52.182;5.404;2022-10-23T08:28:01;17.95;;;8.98;;
36009;SDS011;22076;52.182;5.404;2022-10-23T08:30:28;28.08;;;13.70;;
36009;SDS011;22076;52.182;5.404;2022-10-23T08:32:54;19.27;;;9.35;;
36009;SDS011;22076;52.182;5.404;2022-10-23T08:35:21;28.20;;;12.00;;
36009;SDS011;22076;52.182;5.404;2022-10-23T08:37:48;20.45;;;10.85;;
36009;SDS011;22076;52.182;5.404;2022-10-23T08:40:14;21.30;;;9.88;;
36009;SDS011;22076;52.182;5.404;2022-10-23T08:42:41;20.70;;;10.40;;
36009;SDS011;22076;52.182;5.404;2022-10-23T08:45:17;27.50;;;11.70;;
36009;SDS011;22076;52.182;5.404;2022-10-23T08:47:50;19.73;;;9.57;;
36009;SDS011;22076;52.182;5.404;2022-10-23T08:50:22;19.25;;;9.18;;
36009;SDS011;22076;52.182;5.404;2022-10-23T08:52:52;18.77;;;8.48;;
36009;SDS011;22076;52.182;5.404;2022-10-23T08:55:25;17.88;;;10.35;;
36009;SDS011;22076;52.182;5.404;2022-10-23T08:57:57;18.27;;;8.18;;
36009;SDS011;22076;52.182;5.404;2022-10-23T09:00:27;15.45;;;8.18;;
36009;SDS011;22076;52.182;5.404;2022-10-23T09:02:54;16.67;;;7.60;;
36009;SDS011;22076;52.182;5.404;2022-10-23T09:05:24;17.33;;;8.85;;
36009;SDS011;22076;52.182;5.404;2022-10-23T09:07:59;19.42;;;10.60;;
36009;SDS011;22076;52.182;5.404;2022-10-23T09:10:42;21.70;;;11.07;;
36009;SDS011;22076;52.182;5.404;2022-10-23T09:13:29;21.23;;;9.02;;
36009;SDS011;22076;52.182;5.404;2022-10-23T09:16:09;26.58;;;12.15;;
36009;SDS011;22076;52.182;5.404;2022-10-23T09:18:39;21.50;;;10.77;;
36009;SDS011;22076;52.182;5.404;2022-10-23T09:21:07;14.13;;;6.45;;
36009;SDS011;22076;52.182;5.404;2022-10-23T09:23:34;16.90;;;8.80;;
36009;SDS011;22076;52.182;5.404;2022-10-23T09:26:03;22.50;;;10.48;;
36009;SDS011;22076;52.182;5.404;2022-10-23T09:28:34;20.42;;;10.00;;
36009;SDS011;22076;52.182;5.404;2022-10-23T09:31:05;18.52;;;9.82;;
36009;SDS011;22076;52.182;5.404;2022-10-23T09:33:33;20.40;;;11.20;;
36009;SDS011;22076;52.182;5.404;2022-10-23T09:36:04;19.58;;;9.30;;
36009;SDS011;22076;52.182;5.404;2022-10-23T09:38:33;19.23;;;10.85;;
36009;SDS011;22076;52.182;5.404;2022-10-23T09:41:02;24.30;;;12.13;;
36009;SDS011;22076;52.182;5.404;2022-10-23T09:43:32;21.42;;;9.75;;
36009;SDS011;22076;52.182;5.404;2022-10-23T09:45:59;19.90;;;10.00;;
36009;SDS011;22076;52.182;5.404;2022-10-23T09:48:30;15.57;;;8.73;;
36009;SDS011;22076;52.182;5.404;2022-10-23T09:50:58;24.10;;;10.05;;
36009;SDS011;22076;52.182;5.404;2022-10-23T09:53:30;15.98;;;7.85;;
36009;SDS011;22076;52.182;5.404;2022-10-23T09:56:00;19.13;;;9.93;;
36009;SDS011;22076;52.182;5.404;2022-10-23T09:58:31;16.60;;;9.02;;
36009;SDS011;22076;52.182;5.404;2022-10-23T10:01:01;20.98;;;10.27;;
36009;SDS011;22076;52.182;5.404;2022-10-23T10:03:29;15.07;;;7.45;;
36009;SDS011;22076;52.182;5.404;2022-10-23T10:05:57;18.00;;;8.00;;
36009;SDS011;22076;52.182;5.404;2022-10-23T10:08:27;16.95;;;9.98;;
36009;SDS011;22076;52.182;5.404;2022-10-23T10:10:59;15.45;;;9.40;;
36009;SDS011;22076;52.182;5.404;2022-10-23T10:13:33;19.75;;;9.85;;
36009;SDS011;22076;52.182;5.404;2022-10-23T10:16:07;24.58;;;11.05;;
36009;SDS011;22076;52.182;5.404;2022-10-23T10:18:39;21.70;;;9.57;;
36009;SDS011;22076;52.182;5.404;2022-10-23T10:21:10;17.05;;;7.43;;
36009;SDS011;22076;52.182;5.404;2022-10-23T10:23:44;17.35;;;8.05;;
36009;SDS011;22076;52.182;5.404;2022-10-23T10:26:17;17.85;;;7.90;;
36009;SDS011;22076;52.182;5.404;2022-10-23T10:28:57;20.48;;;8.48;;
36009;SDS011;22076;52.182;5.404;2022-10-23T10:31:31;12.98;;;7.47;;
36009;SDS011;22076;52.182;5.404;2022-10-23T10:34:09;15.20;;;7.68;;
36009;SDS011;22076;52.182;5.404;2022-10-23T10:36:46;17.50;;;8.38;;
36009;SDS011;22076;52.182;5.404;2022-10-23T10:39:18;15.73;;;8.15;;
36009;SDS011;22076;52.182;5.404;2022-10-23T10:41:57;10.45;;;6.22;;
36009;SDS011;22076;52.182;5.404;2022-10-23T10:44:36;15.15;;;8.02;;
36009;SDS011;22076;52.182;5.404;2022-10-23T10:47:11;14.45;;;7.30;;
36009;SDS011;22076;52.182;5.404;2022-10-23T10:49:41;15.65;;;8.38;;
36009;SDS011;22076;52.182;5.404;2022-10-23T10:52:13;18.83;;;8.15;;
36009;SDS011;22076;52.182;5.404;2022-10-23T10:54:44;15.82;;;7.88;;
36009;SDS011;22076;52.182;5.404;2022-10-23T10:57:21;11.05;;;6.57;;
36009;SDS011;22076;52.182;5.404;2022-10-23T10:59:56;12.88;;;7.07;;
36009;SDS011;22076;52.182;5.404;2022-10-23T11:04:56;17.45;;;7.95;;
36009;SDS011;22076;52.182;5.404;2022-10-23T11:07:32;15.05;;;7.13;;
36009;SDS011;22076;52.182;5.404;2022-10-23T11:10:02;9.63;;;6.25;;
36009;SDS011;22076;52.182;5.404;2022-10-23T11:12:31;8.45;;;5.40;;
36009;SDS011;22076;52.182;5.404;2022-10-23T11:14:58;13.88;;;6.43;;
36009;SDS011;22076;52.182;5.404;2022-10-23T11:17:25;13.43;;;6.63;;
36009;SDS011;22076;52.182;5.404;2022-10-23T11:19:57;10.00;;;5.30;;
36009;SDS011;22076;52.182;5.404;2022-10-23T11:22:29;10.25;;;5.28;;
36009;SDS011;22076;52.182;5.404;2022-10-23T11:25:02;14.02;;;5.72;;
36009;SDS011;22076;52.182;5.404;2022-10-23T11:28:00;12.65;;;6.05;;
36009;SDS011;22076;52.182;5.404;2022-10-23T11:30:38;7.10;;;4.65;;
36009;SDS011;22076;52.182;5.404;2022-10-23T11:36:16;16.40;;;5.78;;
36009;SDS011;22076;52.182;5.404;2022-10-23T11:38:44;13.93;;;5.68;;
36009;SDS011;22076;52.182;5.404;2022-10-23T11:41:18;10.38;;;6.15;;
36009;SDS011;22076;52.182;5.404;2022-10-23T11:43:48;14.45;;;6.97;;
36009;SDS011;22076;52.182;5.404;2022-10-23T11:46:29;11.18;;;6.07;;
36009;SDS011;22076;52.182;5.404;2022-10-23T11:48:57;15.00;;;7.50;;
36009;SDS011;22076;52.182;5.404;2022-10-23T11:51:28;15.85;;;6.88;;
36009;SDS011;22076;52.182;5.404;2022-10-23T11:56:53;14.57;;;7.25;;
36009;SDS011;22076;52.182;5.404;2022-10-23T11:59:21;10.07;;;5.75;;
36009;SDS011;22076;52.182;5.404;2022-10-23T12:01:51;13.90;;;6.57;;
36009;SDS011;22076;52.182;5.404;2022-10-23T12:04:20;11.63;;;5.10;;
36009;SDS011;22076;52.182;5.404;2022-10-23T12:06:51;7.97;;;4.00;;
36009;SDS011;22076;52.182;5.404;2022-10-23T12:09:23;14.00;;;5.38;;
36009;SDS011;22076;52.182;5.404;2022-10-23T12:12:13;8.80;;;5.47;;
36009;SDS011;22076;52.182;5.404;2022-10-23T12:14:43;13.93;;;6.15;;
36009;SDS011;22076;52.182;5.404;2022-10-23T12:17:32;14.25;;;6.15;;
36009;SDS011;22076;52.182;5.404;2022-10-23T12:20:03;11.30;;;5.00;;
36009;SDS011;22076;52.182;5.404;2022-10-23T12:22:46;11.83;;;5.47;;
36009;SDS011;22076;52.182;5.404;2022-10-23T12:25:16;12.93;;;6.10;;
36009;SDS011;22076;52.182;5.404;2022-10-23T12:27:46;11.90;;;4.65;;
36009;SDS011;22076;52.182;5.404;2022-10-23T12:30:20;13.98;;;6.25;;
36009;SDS011;22076;52.182;5.404;2022-10-23T12:35:54;18.63;;;5.43;;
36009;SDS011;22076;52.182;5.404;2022-10-23T12:40:59;9.52;;;5.10;;
36009;SDS011;22076;52.182;5.404;2022-10-23T12:43:29;7.63;;;4.35;;
36009;SDS011;22076;52.182;5.404;2022-10-23T12:46:02;11.45;;;4.13;;
36009;SDS011;22076;52.182;5.404;2022-10-23T12:50:57;8.60;;;4.03;;
36009;SDS011;22076;52.182;5.404;2022-10-23T12:53:24;10.27;;;4.47;;
36009;SDS011;22076;52.182;5.404;2022-10-23T12:55:55;15.70;;;4.80;;
36009;SDS011;22076;52.182;5.404;2022-10-23T12:58:23;11.90;;;5.00;;
36009;SDS011;22076;52.182;5.404;2022-10-23T13:00:51;8.60;;;4.80;;
36009;SDS011;22076;52.182;5.404;2022-10-23T13:03:20;13.30;;;4.78;;
36009;SDS011;22076;52.182;5.404;2022-10-23T13:05:48;12.85;;;5.05;;
36009;SDS011;22076;52.182;5.404;2022-10-23T13:08:16;12.60;;;4.40;;
36009;SDS011;22076;52.182;5.404;2022-10-23T13:10:43;8.75;;;4.50;;
36009;SDS011;22076;52.182;5.404;2022-10-23T13:13:11;10.30;;;4.78;;
36009;SDS011;22076;52.182;5.404;2022-10-23T13:15:39;11.57;;;5.07;;
36009;SDS011;22076;52.182;5.404;2022-10-23T13:18:07;9.98;;;4.45;;
36009;SDS011;22076;52.182;5.404;2022-10-23T13:20:36;11.20;;;5.00;;
36009;SDS011;22076;52.182;5.404;2022-10-23T13:23:10;9.88;;;3.65;;
36009;SDS011;22076;52.182;5.404;2022-10-23T13:25:41;10.48;;;4.57;;
36009;SDS011;22076;52.182;5.404;2022-10-23T13:31:05;10.05;;;3.92;;
36009;SDS011;22076;52.182;5.404;2022-10-23T13:33:48;11.85;;;4.25;;
36009;SDS011;22076;52.182;5.404;2022-10-23T13:36:19;9.98;;;4.65;;
36009;SDS011;22076;52.182;5.404;2022-10-23T13:38:57;7.00;;;3.45;;
36009;SDS011;22076;52.182;5.404;2022-10-23T13:41:25;8.20;;;3.83;;
36009;SDS011;22076;52.182;5.404;2022-10-23T13:43:54;4.97;;;3.30;;
36009;SDS011;22076;52.182;5.404;2022-10-23T13:46:22;11.52;;;4.55;;
36009;SDS011;22076;52.182;5.404;2022-10-23T13:48:49;5.75;;;3.50;;
36009;SDS011;22076;52.182;5.404;2022-10-23T13:51:18;10.77;;;3.60;;
36009;SDS011;22076;52.182;5.404;2022-10-23T13:53:45;15.88;;;4.72;;
36009;SDS011;22076;52.182;5.404;2022-10-23T13:56:12;6.75;;;3.65;;
36009;SDS011;22076;52.182;5.404;2022-10-23T13:58:40;7.55;;;4.25;;
36009;SDS011;22076;52.182;5.404;2022-10-23T14:03:40;14.55;;;4.38;;
36009;SDS011;22076;52.182;5.404;2022-10-23T14:06:07;8.43;;;3.25;;
36009;SDS011;22076;52.182;5.404;2022-10-23T14:08:33;10.02;;;4.10;;
36009;SDS011;22076;52.182;5.404;2022-10-23T14:11:00;7.22;;;4.05;;
36009;SDS011;22076;52.182;5.404;2022-10-23T14:13:26;10.25;;;3.97;;
36009;SDS011;22076;52.182;5.404;2022-10-23T14:15:53;5.97;;;3.60;;
36009;SDS011;22076;52.182;5.404;2022-10-23T14:18:21;9.23;;;3.63;;
36009;SDS011;22076;52.182;5.404;2022-10-23T14:20:48;7.53;;;3.45;;
36009;SDS011;22076;52.182;5.404;2022-10-23T14:23:15;11.40;;;3.63;;
36009;SDS011;22076;52.182;5.404;2022-10-23T14:25:41;12.63;;;3.50;;
36009;SDS011;22076;52.182;5.404;2022-10-23T14:28:07;5.88;;;3.47;;
36009;SDS011;22076;52.182;5.404;2022-10-23T14:30:34;5.53;;;3.33;;
36009;SDS011;22076;52.182;5.404;2022-10-23T14:33:01;9.43;;;3.33;;
36009;SDS011;22076;52.182;5.404;2022-10-23T14:35:29;4.95;;;3.47;;
36009;SDS011;22076;52.182;5.404;2022-10-23T14:37:55;9.23;;;4.00;;
36009;SDS011;22076;52.182;5.404;2022-10-23T14:40:23;6.57;;;3.63;;
36009;SDS011;22076;52.182;5.404;2022-10-23T14:42:49;5.20;;;3.13;;
36009;SDS011;22076;52.182;5.404;2022-10-23T14:45:16;7.15;;;3.28;;
36009;SDS011;22076;52.182;5.404;2022-10-23T14:47:42;10.13;;;3.83;;
36009;SDS011;22076;52.182;5.404;2022-10-23T14:50:10;10.65;;;3.70;;
36009;SDS011;22076;52.182;5.404;2022-10-23T14:52:39;13.48;;;4.32;;
36009;SDS011;22076;52.182;5.404;2022-10-23T14:55:06;10.02;;;3.35;;
36009;SDS011;22076;52.182;5.404;2022-10-23T14:57:33;8.73;;;3.60;;
36009;SDS011;22076;52.182;5.404;2022-10-23T15:00:01;8.82;;;3.80;;
36009;SDS011;22076;52.182;5.404;2022-10-23T15:02:28;6.15;;;3.25;;
36009;SDS011;22076;52.182;5.404;2022-10-23T15:04:55;12.23;;;3.88;;
36009;SDS011;22076;52.182;5.404;2022-10-23T15:07:21;13.65;;;4.57;;